Time;durP1;ratioP1;P1;durP2;ratioP2;P2;SDS_P1;SDS_P2;PMS_P1;PMS_P2;Temp;Humidity;BMP_temperature;BMP_pressure;BME280_temperature;BME280_humidity;BME280_pressure;Samples;Min_cycle;Max_cycle;Signal;HPM_P1;HPM_P2
2021/08/08 00:00:02;;;;;;;2.00;1.90;;;12.60;99.90;;;;;;4967425;28;20544;-57
2021/08/08 00:02:28;;;;;;;2.07;1.87;;;12.60;99.90;;;;;;4971191;28;20705;-55
2021/08/08 00:05:08;;;;;;;2.07;1.87;;;12.60;99.90;;;;;;4971515;28;20429;-55
2021/08/08 00:07:33;;;;;;;1.90;1.80;;;12.60;99.90;;;;;;4962870;28;20184;-55
2021/08/08 00:10:19;;;;;;;2.90;1.87;;;12.60;99.90;;;;;;4970616;28;20461;-59
2021/08/08 00:12:56;;;;;;;3.00;1.77;;;12.60;99.90;;;;;;4969345;28;20190;-57
2021/08/08 00:15:25;;;;;;;1.67;1.57;;;12.60;99.90;;;;;;4968543;28;20456;-56
2021/08/08 00:17:57;;;;;;;2.73;1.60;;;12.60;99.90;;;;;;4964653;28;20413;-56
2021/08/08 00:20:32;;;;;;;1.60;1.50;;;12.60;99.90;;;;;;4972329;28;20428;-56
2021/08/08 00:23:25;;;;;;;16.27;2.00;;;12.60;99.90;;;;;;4972487;28;20428;-58
2021/08/08 00:25:54;;;;;;;1.53;1.43;;;12.50;99.90;;;;;;4968536;28;20429;-57
2021/08/08 00:28:31;;;;;;;5.33;1.87;;;12.50;99.90;;;;;;4971721;28;20503;-54
2021/08/08 00:31:22;;;;;;;3.60;1.90;;;12.40;99.90;;;;;;4969457;28;20460;-56
2021/08/08 00:34:00;;;;;;;3.00;1.83;;;12.40;99.90;;;;;;4959254;28;21027;-58
2021/08/08 00:36:28;;;;;;;1.80;1.70;;;12.30;99.90;;;;;;4970453;28;20433;-55
2021/08/08 00:39:04;;;;;;;1.93;1.83;;;12.30;99.90;;;;;;4969394;28;20429;-57
2021/08/08 00:41:33;;;;;;;1.80;1.70;;;12.30;99.90;;;;;;4965013;28;20425;-56
2021/08/08 00:43:59;;;;;;;1.90;1.80;;;12.30;99.90;;;;;;4971578;28;20939;-56
2021/08/08 00:46:36;;;;;;;1.93;1.83;;;12.20;99.90;;;;;;4971925;28;21020;-55
2021/08/08 00:49:01;;;;;;;3.30;1.90;;;12.10;99.90;;;;;;4961364;28;20201;-58
2021/08/08 00:51:33;;;;;;;3.90;1.90;;;12.10;99.90;;;;;;4974385;28;20452;-57
2021/08/08 00:54:00;;;;;;;2.53;2.20;;;12.10;99.90;;;;;;4970038;28;20189;-58
2021/08/08 00:56:35;;;;;;;3.10;2.10;;;12.00;99.90;;;;;;4983249;28;20429;-57
2021/08/08 00:59:06;;;;;;;2.40;2.10;;;12.00;99.90;;;;;;4983866;28;20537;-55
2021/08/08 01:01:39;;;;;;;2.10;1.83;;;12.00;99.90;;;;;;4971932;28;20433;-56
2021/08/08 01:04:07;;;;;;;3.17;1.60;;;11.90;99.90;;;;;;4952867;29;20410;-55
2021/08/08 01:06:43;;;;;;;9.20;1.90;;;11.90;99.90;;;;;;4960087;28;20425;-55
2021/08/08 01:09:14;;;;;;;2.30;1.73;;;11.90;99.90;;;;;;4970605;28;20468;-55
2021/08/08 01:11:59;;;;;;;6.03;2.07;;;11.80;99.90;;;;;;4971155;28;20429;-56
2021/08/08 01:14:33;;;;;;;3.10;2.33;;;11.80;99.90;;;;;;4978623;28;20466;-55
2021/08/08 01:17:10;;;;;;;5.03;2.40;;;11.80;99.90;;;;;;4952062;28;20418;-57
2021/08/08 01:19:49;;;;;;;5.30;2.20;;;11.80;99.90;;;;;;4952760;28;20509;-56
2021/08/08 01:22:25;;;;;;;6.20;2.50;;;11.80;99.90;;;;;;4966897;28;20421;-56
2021/08/08 01:25:00;;;;;;;2.20;1.83;;;11.80;99.90;;;;;;4967586;28;20424;-55
2021/08/08 01:27:30;;;;;;;3.00;2.10;;;11.80;99.90;;;;;;4971119;28;20417;-55
2021/08/08 01:29:58;;;;;;;2.90;1.77;;;11.80;99.90;;;;;;4971158;28;20413;-54
2021/08/08 01:32:29;;;;;;;2.97;2.10;;;11.80;99.90;;;;;;4969723;28;20470;-56
2021/08/08 01:34:55;;;;;;;2.90;2.00;;;11.90;99.90;;;;;;4950764;29;20963;-57
2021/08/08 01:37:42;;;;;;;2.20;1.93;;;11.90;99.90;;;;;;4966720;28;20444;-56
2021/08/08 01:40:23;;;;;;;1.80;1.70;;;11.90;99.90;;;;;;4963250;28;20440;-57
2021/08/08 01:43:12;;;;;;;2.13;1.93;;;11.80;99.90;;;;;;4965166;28;20528;-58
2021/08/08 01:45:45;;;;;;;2.73;2.40;;;11.80;99.90;;;;;;4955300;28;20815;-57
2021/08/08 01:48:16;;;;;;;12.13;7.23;;;11.80;99.90;;;;;;4970903;28;20494;-58
2021/08/08 01:50:44;;;;;;;17.60;10.70;;;11.80;99.90;;;;;;4985336;28;20429;-57
2021/08/08 01:53:23;;;;;;;9.80;5.20;;;11.70;99.90;;;;;;4960796;28;20551;-57
2021/08/08 01:55:52;;;;;;;7.13;3.10;;;11.70;99.90;;;;;;4951948;29;20543;-56
2021/08/08 01:58:30;;;;;;;6.10;2.60;;;11.70;99.90;;;;;;4964778;28;20815;-57
2021/08/08 02:00:59;;;;;;;6.97;2.50;;;11.70;99.90;;;;;;4968993;28;20805;-57
2021/08/08 02:03:40;;;;;;;5.40;2.37;;;11.70;99.90;;;;;;4969982;28;20876;-57
2021/08/08 02:06:13;;;;;;;2.93;2.30;;;11.70;99.90;;;;;;4970985;28;20397;-56
2021/08/08 02:08:44;;;;;;;4.70;1.87;;;11.70;99.90;;;;;;4952106;28;20433;-55
2021/08/08 02:11:27;;;;;;;2.13;1.77;;;11.60;99.90;;;;;;4970815;28;20943;-55
2021/08/08 02:14:11;;;;;;;2.30;1.70;;;11.70;99.90;;;;;;4972992;28;20417;-56
2021/08/08 02:16:40;;;;;;;3.60;1.70;;;11.60;99.90;;;;;;4974304;28;20449;-57
2021/08/08 02:19:10;;;;;;;3.53;1.60;;;11.70;99.90;;;;;;4966325;28;20532;-53
2021/08/08 02:21:51;;;;;;;6.17;1.70;;;11.60;99.90;;;;;;4974295;28;20445;-57
2021/08/08 02:24:20;;;;;;;3.30;2.10;;;11.60;99.90;;;;;;4972275;28;20428;-55
2021/08/08 02:26:58;;;;;;;1.90;1.80;;;11.60;99.90;;;;;;4973095;28;20452;-57
2021/08/08 02:29:44;;;;;;;2.97;1.97;;;11.60;99.90;;;;;;4971619;28;20445;-56
2021/08/08 02:32:19;;;;;;;2.70;2.10;;;11.50;99.90;;;;;;4970437;28;20808;-56
2021/08/08 02:34:45;;;;;;;6.07;2.10;;;11.50;99.90;;;;;;4970753;28;20503;-57
2021/08/08 02:37:14;;;;;;;4.13;2.67;;;11.50;99.90;;;;;;4973007;28;21151;-54
2021/08/08 02:39:57;;;;;;;9.00;2.80;;;11.50;99.90;;;;;;4973331;28;20243;-58
2021/08/08 02:42:37;;;;;;;6.53;2.83;;;11.50;99.90;;;;;;4973686;28;20425;-56
2021/08/08 02:45:06;;;;;;;5.87;3.20;;;11.40;99.90;;;;;;4973365;28;20801;-56
2021/08/08 02:47:36;;;;;;;3.20;2.80;;;11.40;99.90;;;;;;4970604;28;20417;-56
2021/08/08 02:50:13;;;;;;;4.40;3.00;;;11.40;99.90;;;;;;4963666;28;20535;-55
2021/08/08 02:52:41;;;;;;;3.67;3.00;;;11.40;99.90;;;;;;4973024;28;20475;-57
2021/08/08 02:55:15;;;;;;;3.43;2.30;;;11.40;99.90;;;;;;4973635;28;20484;-56
2021/08/08 02:57:49;;;;;;;2.33;1.63;;;11.40;99.90;;;;;;4971606;28;20445;-54
2021/08/08 03:00:27;;;;;;;3.00;1.60;;;11.40;99.90;;;;;;4972183;28;20421;-57
2021/08/08 03:02:57;;;;;;;2.30;1.60;;;11.40;99.90;;;;;;4988893;28;20544;-56
2021/08/08 03:05:23;;;;;;;1.50;1.40;;;11.40;99.90;;;;;;4973909;28;20440;-56
2021/08/08 03:07:57;;;;;;;4.67;1.77;;;11.40;99.90;;;;;;4971901;28;20962;-57
2021/08/08 03:10:25;;;;;;;1.67;1.47;;;11.40;99.90;;;;;;4972997;28;20193;-56
2021/08/08 03:13:23;;;;;;;5.87;1.63;;;11.40;99.90;;;;;;4973423;28;20420;-56
2021/08/08 03:15:51;;;;;;;3.80;1.80;;;11.40;99.90;;;;;;4972971;28;20512;-56
2021/08/08 03:18:23;;;;;;;2.87;2.00;;;11.40;99.90;;;;;;4966015;28;20548;-55
2021/08/08 03:20:53;;;;;;;4.67;1.80;;;11.40;99.90;;;;;;4972364;28;20953;-57
2021/08/08 03:23:31;;;;;;;6.70;2.10;;;11.40;99.90;;;;;;4972788;28;20453;-54
2021/08/08 03:25:59;;;;;;;3.97;1.67;;;11.40;99.90;;;;;;4972543;28;21019;-56
2021/08/08 03:28:27;;;;;;;4.53;1.83;;;11.40;99.90;;;;;;4962256;28;20453;-56
2021/08/08 03:30:56;;;;;;;1.83;1.53;;;11.40;99.90;;;;;;4973513;28;20815;-57
2021/08/08 03:33:44;;;;;;;3.00;1.60;;;11.40;99.90;;;;;;4988280;28;20936;-56
2021/08/08 03:36:22;;;;;;;1.90;1.73;;;11.40;99.90;;;;;;4969333;28;20824;-56
2021/08/08 03:38:48;;;;;;;2.10;1.90;;;11.40;99.90;;;;;;4971080;28;20444;-57
2021/08/08 03:41:15;;;;;;;8.03;1.83;;;11.50;99.90;;;;;;4971486;28;20434;-55
2021/08/08 03:43:40;;;;;;;3.67;1.87;;;11.50;99.90;;;;;;4971612;28;20418;-56
2021/08/08 03:46:06;;;;;;;1.70;1.50;;;11.50;99.90;;;;;;4966485;28;20429;-57
2021/08/08 03:48:32;;;;;;;3.97;1.70;;;11.50;99.90;;;;;;4970991;28;20194;-56
2021/08/08 03:50:58;;;;;;;2.40;1.50;;;11.50;99.90;;;;;;4972592;28;20213;-57
2021/08/08 03:53:24;;;;;;;3.40;1.70;;;11.60;99.90;;;;;;4959500;28;20186;-56
2021/08/08 03:55:49;;;;;;;1.70;1.50;;;11.60;99.90;;;;;;4963709;28;20281;-55
2021/08/08 03:58:15;;;;;;;2.43;1.67;;;11.60;99.90;;;;;;4970462;28;20264;-55
2021/08/08 04:00:40;;;;;;;3.27;1.97;;;11.70;99.90;;;;;;4969015;28;20184;-55
2021/08/08 04:03:06;;;;;;;1.97;1.87;;;11.70;99.90;;;;;;4973255;28;20170;-54
2021/08/08 04:05:32;;;;;;;2.80;2.07;;;11.70;99.90;;;;;;4973825;28;20762;-56
2021/08/08 04:07:58;;;;;;;1.97;1.77;;;11.70;99.90;;;;;;4970280;28;20571;-55
2021/08/08 04:10:23;;;;;;;3.10;2.17;;;11.70;99.90;;;;;;4971452;28;20196;-56
2021/08/08 04:12:51;;;;;;;4.43;2.30;;;11.70;99.90;;;;;;4972215;28;20253;-55
2021/08/08 04:15:17;;;;;;;5.70;2.03;;;11.70;99.90;;;;;;4970528;28;20726;-56
2021/08/08 04:17:42;;;;;;;9.63;2.10;;;11.70;99.90;;;;;;4971409;28;20504;-54
2021/08/08 04:20:09;;;;;;;2.93;1.80;;;11.70;99.90;;;;;;4972253;28;20838;-54
2021/08/08 04:22:34;;;;;;;4.57;2.03;;;11.70;99.90;;;;;;4971509;28;20678;-55
2021/08/08 04:25:00;;;;;;;2.07;1.43;;;11.60;99.90;;;;;;4970185;28;20422;-55
2021/08/08 04:27:26;;;;;;;9.10;1.80;;;11.60;99.90;;;;;;4965949;28;20655;-55
2021/08/08 04:29:51;;;;;;;1.80;1.70;;;11.50;99.90;;;;;;4970746;28;20686;-56
2021/08/08 04:32:18;;;;;;;1.97;1.80;;;11.50;99.90;;;;;;4971676;28;20177;-56
2021/08/08 04:34:43;;;;;;;2.80;1.50;;;11.40;99.90;;;;;;4970243;28;20194;-56
2021/08/08 04:37:09;;;;;;;2.07;1.60;;;11.40;99.90;;;;;;4969826;28;20500;-56
2021/08/08 04:39:35;;;;;;;3.30;1.93;;;11.30;99.90;;;;;;4972249;28;20206;-55
2021/08/08 04:42:02;;;;;;;2.80;1.73;;;11.30;99.90;;;;;;4970827;28;20182;-55
2021/08/08 04:44:27;;;;;;;1.80;1.60;;;11.30;99.90;;;;;;4972095;28;20185;-54
2021/08/08 04:46:53;;;;;;;5.20;1.93;;;11.30;99.90;;;;;;4971191;28;20520;-54
2021/08/08 04:49:19;;;;;;;4.10;2.00;;;11.30;99.90;;;;;;4971077;28;20257;-55
2021/08/08 04:51:44;;;;;;;2.87;2.07;;;11.30;99.90;;;;;;4972084;28;20232;-57
2021/08/08 04:54:10;;;;;;;1.63;1.53;;;11.40;99.90;;;;;;4971956;28;20289;-56
2021/08/08 04:56:36;;;;;;;6.13;1.90;;;11.40;99.90;;;;;;4963914;28;20166;-54
2021/08/08 04:59:02;;;;;;;2.80;2.50;;;11.50;99.90;;;;;;4969557;28;20208;-55
2021/08/08 05:01:29;;;;;;;4.37;2.07;;;11.50;99.90;;;;;;4970691;28;20699;-54
2021/08/08 05:03:55;;;;;;;3.90;2.50;;;11.60;99.90;;;;;;4954134;28;20457;-54
2021/08/08 05:06:20;;;;;;;6.13;2.10;;;11.60;99.90;;;;;;4971014;28;20417;-54
2021/08/08 05:08:46;;;;;;;2.60;2.07;;;11.70;99.90;;;;;;4970857;28;20868;-57
2021/08/08 05:11:16;;;;;;;1.80;1.63;;;11.70;99.90;;;;;;4971312;28;20166;-58
2021/08/08 05:13:42;;;;;;;4.97;2.00;;;11.80;99.90;;;;;;4971535;28;20193;-55
2021/08/08 05:16:08;;;;;;;2.60;2.30;;;11.80;99.90;;;;;;4971272;28;20976;-56
2021/08/08 05:18:33;;;;;;;4.67;2.00;;;11.90;99.90;;;;;;4970604;28;20786;-58
2021/08/08 05:20:59;;;;;;;8.20;2.47;;;12.00;99.90;;;;;;4968284;28;20174;-57
2021/08/08 05:23:24;;;;;;;2.80;2.60;;;12.00;99.90;;;;;;4970884;28;20189;-55
2021/08/08 05:25:56;;;;;;;2.67;2.47;;;12.00;99.90;;;;;;4966419;28;20601;-56
2021/08/08 05:28:21;;;;;;;3.03;2.60;;;12.00;99.90;;;;;;4969162;28;20198;-55
2021/08/08 05:30:47;;;;;;;5.60;2.50;;;12.00;99.90;;;;;;4968298;28;20436;-55
2021/08/08 05:33:12;;;;;;;2.60;2.40;;;12.00;99.90;;;;;;4962612;28;20181;-56
2021/08/08 05:35:38;;;;;;;2.87;2.67;;;12.00;99.90;;;;;;4969692;28;20210;-56
2021/08/08 05:38:04;;;;;;;3.40;2.70;;;12.10;99.90;;;;;;4966895;28;20174;-56
2021/08/08 05:40:29;;;;;;;3.33;2.27;;;12.10;99.90;;;;;;4967908;28;20205;-56
2021/08/08 05:42:55;;;;;;;3.00;1.93;;;12.20;99.90;;;;;;4969595;28;20181;-56
2021/08/08 05:45:22;;;;;;;5.17;2.03;;;12.30;99.90;;;;;;4969072;28;20201;-56
2021/08/08 05:47:49;;;;;;;2.07;1.97;;;12.30;99.90;;;;;;4966781;28;20181;-55
2021/08/08 05:50:14;;;;;;;2.60;1.67;;;12.40;99.90;;;;;;4962853;28;20433;-55
2021/08/08 05:52:40;;;;;;;5.27;1.70;;;12.50;99.90;;;;;;4970932;28;20424;-55
2021/08/08 05:55:06;;;;;;;3.10;1.90;;;12.60;99.90;;;;;;4970776;28;20576;-55
2021/08/08 05:57:31;;;;;;;6.07;2.30;;;12.70;99.90;;;;;;4970446;28;20684;-56
2021/08/08 05:59:57;;;;;;;5.47;1.80;;;12.90;99.90;;;;;;4968937;28;20459;-54
2021/08/08 06:02:23;;;;;;;3.70;2.10;;;13.00;99.90;;;;;;4969936;28;20224;-58
2021/08/08 06:04:49;;;;;;;4.40;1.57;;;13.10;99.90;;;;;;4970541;28;20579;-54
2021/08/08 06:07:16;;;;;;;8.23;1.60;;;13.10;99.90;;;;;;4969802;28;20214;-57
2021/08/08 06:09:42;;;;;;;5.83;2.00;;;13.00;99.90;;;;;;4968950;28;20469;-56
2021/08/08 06:12:08;;;;;;;4.43;2.20;;;13.00;99.90;;;;;;4985285;28;20417;-58
2021/08/08 06:14:34;;;;;;;1.77;1.67;;;13.00;99.90;;;;;;4970477;28;20190;-55
2021/08/08 06:16:59;;;;;;;3.83;2.10;;;12.90;99.90;;;;;;4956758;28;20189;-56
2021/08/08 06:19:25;;;;;;;4.30;2.10;;;13.00;99.90;;;;;;4968153;28;20449;-56
2021/08/08 06:21:51;;;;;;;2.30;2.10;;;13.10;99.90;;;;;;4962468;28;20185;-59
2021/08/08 06:24:20;;;;;;;2.03;1.70;;;13.20;99.90;;;;;;4971246;28;20208;-60
2021/08/08 06:26:45;;;;;;;2.13;1.80;;;13.30;99.90;;;;;;4973408;28;20181;-57
2021/08/08 06:29:11;;;;;;;2.87;2.00;;;13.40;99.90;;;;;;4971087;28;20832;-54
2021/08/08 06:31:37;;;;;;;3.40;2.13;;;13.60;99.90;;;;;;4969049;28;20186;-54
2021/08/08 06:34:03;;;;;;;2.50;2.10;;;13.70;99.90;;;;;;4969569;28;20640;-55
2021/08/08 06:36:29;;;;;;;3.20;1.97;;;13.80;99.90;;;;;;4969757;28;20178;-57
2021/08/08 06:38:55;;;;;;;4.37;2.40;;;13.90;99.90;;;;;;4968971;28;20255;-56
2021/08/08 06:41:21;;;;;;;3.87;2.30;;;14.00;99.90;;;;;;4980709;28;20170;-53
2021/08/08 06:43:47;;;;;;;2.23;1.67;;;14.10;99.90;;;;;;4974472;28;20556;-56
2021/08/08 06:46:13;;;;;;;3.53;2.07;;;14.30;99.90;;;;;;4966421;28;20178;-57
2021/08/08 06:48:38;;;;;;;10.13;2.43;;;14.40;99.90;;;;;;4967215;28;20556;-54
2021/08/08 06:51:04;;;;;;;1.90;1.67;;;14.60;99.90;;;;;;4968145;28;20655;-58
2021/08/08 06:53:30;;;;;;;2.50;2.00;;;14.70;99.90;;;;;;4968237;28;20366;-57
2021/08/08 06:55:58;;;;;;;8.67;1.63;;;14.80;99.90;;;;;;4984389;28;20205;-59
2021/08/08 06:58:23;;;;;;;2.30;1.90;;;14.80;99.90;;;;;;4982762;28;20453;-60
2021/08/08 07:00:49;;;;;;;2.13;1.70;;;14.80;99.90;;;;;;4980635;28;20631;-60
2021/08/08 07:03:14;;;;;;;5.53;2.13;;;14.90;99.90;;;;;;4987056;28;20220;-58
2021/08/08 07:05:40;;;;;;;4.60;1.70;;;15.10;99.90;;;;;;4975486;28;20180;-56
2021/08/08 07:08:07;;;;;;;2.50;1.50;;;15.30;99.90;;;;;;4978439;28;20181;-56
2021/08/08 07:10:33;;;;;;;4.40;1.60;;;15.40;99.90;;;;;;4968251;28;20244;-58
2021/08/08 07:12:59;;;;;;;1.73;1.63;;;15.60;99.90;;;;;;4968114;28;20509;-55
2021/08/08 07:15:24;;;;;;;2.87;1.73;;;15.60;99.90;;;;;;4970525;28;21005;-55
2021/08/08 07:17:50;;;;;;;4.17;1.70;;;15.60;99.90;;;;;;4967665;28;20178;-57
2021/08/08 07:20:16;;;;;;;3.67;2.10;;;15.60;99.90;;;;;;4966698;28;20799;-56
2021/08/08 07:22:41;;;;;;;5.17;1.50;;;15.70;99.90;;;;;;4965726;28;20178;-54
2021/08/08 07:25:08;;;;;;;1.83;1.40;;;15.80;99.90;;;;;;4966720;28;20186;-57
2021/08/08 07:27:33;;;;;;;3.53;1.80;;;15.80;99.90;;;;;;4966514;28;20186;-56
2021/08/08 07:29:59;;;;;;;3.07;1.93;;;15.80;99.90;;;;;;4967382;28;20471;-55
2021/08/08 07:32:25;;;;;;;4.63;1.70;;;15.80;99.90;;;;;;4959343;28;20213;-56
2021/08/08 07:34:51;;;;;;;1.70;1.60;;;15.80;99.90;;;;;;4970749;28;20201;-57
2021/08/08 07:37:17;;;;;;;7.50;1.80;;;15.80;99.90;;;;;;4970906;28;21055;-56
2021/08/08 07:39:43;;;;;;;3.53;1.40;;;15.80;99.90;;;;;;4970991;28;20496;-57
2021/08/08 07:42:08;;;;;;;4.30;1.30;;;15.80;99.90;;;;;;4970128;28;20174;-54
2021/08/08 07:44:34;;;;;;;1.60;1.50;;;15.70;99.90;;;;;;4972201;28;20182;-54
2021/08/08 07:47:00;;;;;;;4.03;1.80;;;15.60;99.90;;;;;;4972075;28;20174;-55
2021/08/08 07:49:25;;;;;;;6.60;1.40;;;15.60;99.90;;;;;;4970660;28;20205;-56
2021/08/08 07:51:51;;;;;;;5.20;2.13;;;15.60;99.90;;;;;;4961900;28;20249;-55
2021/08/08 07:54:21;;;;;;;7.03;1.53;;;15.60;99.90;;;;;;4967121;28;20265;-53
2021/08/08 07:56:47;;;;;;;4.73;1.93;;;15.60;99.90;;;;;;4969495;28;20264;-55
2021/08/08 07:59:13;;;;;;;1.90;1.30;;;15.60;99.90;;;;;;4969361;28;20961;-55
2021/08/08 08:01:41;;;;;;;7.63;1.70;;;15.70;99.90;;;;;;4971235;28;20472;-56
2021/08/08 08:04:07;;;;;;;2.60;1.60;;;15.70;99.90;;;;;;4968556;28;20519;-54
2021/08/08 08:06:33;;;;;;;4.90;1.77;;;15.80;99.90;;;;;;4971570;28;20440;-54
2021/08/08 08:09:01;;;;;;;3.10;1.50;;;15.90;99.90;;;;;;4966919;28;20457;-56
2021/08/08 08:11:27;;;;;;;3.50;1.73;;;15.90;99.90;;;;;;4953052;28;20192;-58
2021/08/08 08:13:52;;;;;;;3.20;1.30;;;16.00;99.90;;;;;;4971256;28;20429;-55
2021/08/08 08:16:19;;;;;;;3.40;1.50;;;16.10;99.90;;;;;;4967944;28;20284;-55
2021/08/08 08:18:45;;;;;;;2.83;1.70;;;16.20;99.90;;;;;;4968304;28;21053;-56
2021/08/08 08:21:10;;;;;;;2.30;1.30;;;16.20;99.90;;;;;;4970069;28;20185;-57
2021/08/08 08:23:36;;;;;;;9.03;1.70;;;16.20;99.90;;;;;;4969687;28;20178;-56
2021/08/08 08:26:02;;;;;;;5.10;1.70;;;16.20;99.90;;;;;;4968667;28;20217;-57
2021/08/08 08:28:29;;;;;;;2.73;1.77;;;16.20;99.90;;;;;;4972516;28;20985;-55
2021/08/08 08:30:58;;;;;;;6.77;1.50;;;16.20;99.90;;;;;;4976712;28;20181;-58
2021/08/08 08:33:25;;;;;;;3.40;1.60;;;16.10;99.90;;;;;;4971018;28;20986;-55
2021/08/08 08:35:51;;;;;;;4.23;1.43;;;16.10;99.50;;;;;;4968713;28;20543;-56
2021/08/08 08:38:17;;;;;;;5.47;1.50;;;16.10;99.90;;;;;;4964403;28;20553;-56
2021/08/08 08:40:44;;;;;;;4.43;1.77;;;16.10;99.90;;;;;;4954337;28;20441;-58
2021/08/08 08:43:11;;;;;;;3.80;1.60;;;16.10;99.90;;;;;;4970270;28;20516;-57
2021/08/08 08:45:43;;;;;;;2.17;1.40;;;16.10;99.90;;;;;;4985730;28;20531;-58
2021/08/08 08:48:10;;;;;;;4.30;1.50;;;16.10;99.70;;;;;;4960024;28;20478;-56
2021/08/08 08:50:36;;;;;;;1.90;1.33;;;16.00;99.60;;;;;;4953269;28;21031;-57
2021/08/08 08:53:03;;;;;;;4.43;2.00;;;16.00;99.90;;;;;;4969310;28;20524;-57
2021/08/08 08:55:29;;;;;;;8.23;2.80;;;16.10;99.90;;;;;;4967135;28;20469;-55
2021/08/08 08:57:56;;;;;;;4.80;2.17;;;16.10;99.90;;;;;;4970424;28;20897;-55
2021/08/08 09:00:24;;;;;;;4.30;1.90;;;16.10;99.90;;;;;;4974915;28;20466;-57
2021/08/08 09:02:53;;;;;;;1.70;1.60;;;16.20;99.90;;;;;;4972120;28;20460;-59
2021/08/08 09:05:21;;;;;;;4.60;1.63;;;16.30;99.90;;;;;;4962642;28;20445;-56
2021/08/08 09:07:47;;;;;;;2.13;1.70;;;16.40;99.90;;;;;;4960571;28;20433;-58
2021/08/08 09:10:14;;;;;;;5.40;1.60;;;16.50;99.90;;;;;;4963105;28;20465;-57
2021/08/08 09:12:41;;;;;;;2.33;1.50;;;16.70;99.90;;;;;;4972506;28;20227;-57
2021/08/08 09:15:10;;;;;;;2.93;1.87;;;16.90;99.90;;;;;;4966434;28;21123;-58
2021/08/08 09:17:38;;;;;;;2.13;1.73;;;17.00;99.90;;;;;;4970830;28;20464;-58
2021/08/08 09:20:07;;;;;;;5.23;1.77;;;17.10;99.90;;;;;;4964787;28;20594;-54
2021/08/08 09:22:33;;;;;;;4.50;1.40;;;17.20;98.70;;;;;;4968555;28;20448;-57
2021/08/08 09:24:58;;;;;;;2.63;1.70;;;17.10;97.50;;;;;;4969852;28;20444;-55
2021/08/08 09:27:35;;;;;;;1.90;1.67;;;17.10;98.80;;;;;;4966182;28;20224;-56
2021/08/08 09:30:04;;;;;;;4.67;1.60;;;17.10;99.50;;;;;;4963639;28;20201;-58
2021/08/08 09:32:34;;;;;;;4.40;1.60;;;17.10;99.40;;;;;;4967853;28;20579;-57
2021/08/08 09:35:08;;;;;;;2.50;1.40;;;17.00;99.90;;;;;;4964740;28;20543;-58
2021/08/08 09:37:34;;;;;;;3.17;1.60;;;17.00;99.90;;;;;;4959616;28;20510;-57
2021/08/08 09:40:00;;;;;;;2.60;1.40;;;17.00;99.90;;;;;;4962329;28;20469;-55
2021/08/08 09:42:28;;;;;;;1.33;1.23;;;17.00;99.90;;;;;;4946188;28;20877;-57
2021/08/08 09:44:58;;;;;;;3.20;1.50;;;17.10;99.90;;;;;;4963497;28;20186;-56
2021/08/08 09:47:40;;;;;;;1.43;1.30;;;17.30;99.90;;;;;;4966318;28;20429;-58
2021/08/08 09:50:17;;;;;;;14.37;1.80;;;17.40;99.60;;;;;;4965038;28;20913;-58
2021/08/08 09:52:52;;;;;;;2.30;1.33;;;17.50;99.10;;;;;;4962787;28;20523;-56
2021/08/08 09:55:33;;;;;;;4.43;1.50;;;17.50;97.40;;;;;;4955992;28;20520;-59
2021/08/08 09:58:04;;;;;;;5.07;1.60;;;17.50;95.60;;;;;;4977742;28;20468;-57
2021/08/08 10:00:35;;;;;;;3.07;1.53;;;17.50;95.30;;;;;;4964989;28;20492;-58
2021/08/08 10:03:03;;;;;;;3.63;1.40;;;17.60;96.50;;;;;;4964314;28;20455;-57
2021/08/08 10:05:32;;;;;;;2.30;1.40;;;17.70;94.90;;;;;;4970604;28;20464;-58
2021/08/08 10:07:59;;;;;;;3.97;1.87;;;17.80;95.00;;;;;;4975121;28;20441;-56
2021/08/08 10:10:25;;;;;;;7.30;1.93;;;18.00;94.90;;;;;;4959684;28;20528;-58
2021/08/08 10:13:21;;;;;;;17.30;2.23;;;18.40;95.80;;;;;;4965056;28;20449;-57
2021/08/08 10:15:50;;;;;;;5.43;4.70;;;18.90;91.00;;;;;;4976279;28;20292;-58
2021/08/08 10:18:18;;;;;;;5.70;3.10;;;19.10;79.20;;;;;;4962972;28;20540;-57
2021/08/08 10:20:44;;;;;;;2.40;1.40;;;19.30;76.90;;;;;;4968542;28;20432;-57
2021/08/08 10:23:15;;;;;;;3.13;1.43;;;19.50;79.20;;;;;;4962164;28;20777;-56
2021/08/08 10:25:44;;;;;;;2.03;1.10;;;19.80;79.40;;;;;;4960644;28;20209;-57
2021/08/08 10:28:11;;;;;;;1.93;1.70;;;19.80;73.20;;;;;;4963314;28;20449;-56
2021/08/08 10:30:37;;;;;;;2.13;1.90;;;20.00;75.70;;;;;;4967333;28;20453;-57
2021/08/08 10:33:05;;;;;;;10.10;1.83;;;20.10;64.70;;;;;;4966093;28;20939;-57
2021/08/08 10:35:41;;;;;;;2.93;1.43;;;20.20;68.80;;;;;;4967223;28;20457;-57
2021/08/08 10:38:08;;;;;;;3.47;1.30;;;20.30;60.30;;;;;;4963365;28;20439;-57
2021/08/08 10:40:36;;;;;;;7.10;1.70;;;20.20;59.60;;;;;;4968901;28;21053;-57
2021/08/08 10:43:03;;;;;;;4.27;1.50;;;20.00;60.90;;;;;;4968543;28;20948;-59
2021/08/08 10:45:34;;;;;;;2.07;1.33;;;20.00;60.80;;;;;;4966758;28;20442;-64
2021/08/08 10:48:02;;;;;;;2.47;1.30;;;20.20;61.70;;;;;;4966534;28;21214;-58
2021/08/08 10:50:57;;;;;;;5.33;1.10;;;20.30;60.00;;;;;;4963704;28;20435;-56
2021/08/08 10:53:32;;;;;;;3.53;1.40;;;20.60;59.00;;;;;;4960744;28;20543;-56
2021/08/08 10:56:09;;;;;;;1.53;1.13;;;20.90;59.40;;;;;;4970405;28;20471;-56
2021/08/08 10:58:38;;;;;;;1.87;1.40;;;21.00;55.90;;;;;;4967536;28;20459;-55
2021/08/08 11:01:21;;;;;;;2.40;1.33;;;20.90;55.70;;;;;;4967967;28;20460;-59
2021/08/08 11:03:59;;;;;;;2.57;1.30;;;20.60;53.50;;;;;;4969201;28;20429;-58
2021/08/08 11:06:26;;;;;;;4.77;1.60;;;20.40;54.70;;;;;;4969120;28;20437;-57
2021/08/08 11:08:57;;;;;;;3.70;1.80;;;20.20;54.90;;;;;;4968637;28;20457;-57
2021/08/08 11:11:30;;;;;;;3.33;1.47;;;19.90;55.20;;;;;;4972184;28;20918;-57
2021/08/08 11:14:28;;;;;;;1.90;1.67;;;19.70;55.70;;;;;;4972227;28;20946;-59
2021/08/08 11:17:07;;;;;;;1.40;1.10;;;19.50;55.80;;;;;;4959279;28;20453;-57
2021/08/08 11:19:38;;;;;;;4.40;1.53;;;19.30;56.60;;;;;;4971888;28;20452;-56
2021/08/08 11:22:08;;;;;;;4.57;1.97;;;19.20;57.40;;;;;;4971112;28;20444;-57
2021/08/08 11:24:33;;;;;;;3.00;2.13;;;19.10;58.20;;;;;;4969071;28;20437;-55
2021/08/08 11:26:59;;;;;;;4.50;1.97;;;19.10;57.60;;;;;;4959969;28;20514;-56
2021/08/08 11:29:25;;;;;;;4.07;1.67;;;19.10;59.00;;;;;;4968525;28;20209;-62
2021/08/08 11:31:58;;;;;;;2.60;1.87;;;19.10;59.20;;;;;;4958439;28;20760;-59
2021/08/08 11:34:24;;;;;;;2.10;1.33;;;19.10;58.60;;;;;;4956745;28;20263;-61
2021/08/08 11:36:50;;;;;;;6.00;1.87;;;19.10;58.70;;;;;;4979430;28;20919;-58
2021/08/08 11:39:16;;;;;;;2.27;1.47;;;19.10;59.30;;;;;;4968739;28;20464;-58
2021/08/08 11:41:42;;;;;;;2.10;1.20;;;19.20;56.90;;;;;;4961329;28;20352;-57
2021/08/08 11:44:13;;;;;;;2.50;1.13;;;19.20;57.10;;;;;;4954067;28;20182;-57
2021/08/08 11:46:44;;;;;;;3.70;1.40;;;19.30;56.00;;;;;;4968783;28;20864;-59
2021/08/08 11:49:17;;;;;;;2.10;1.37;;;19.60;54.30;;;;;;4964562;28;20449;-57
2021/08/08 11:51:53;;;;;;;4.50;1.20;;;20.10;55.50;;;;;;4968728;28;20437;-57
2021/08/08 11:54:23;;;;;;;2.03;1.33;;;20.40;55.10;;;;;;4965071;28;20502;-59
2021/08/08 11:56:49;;;;;;;2.60;1.37;;;20.40;54.60;;;;;;4964229;28;20438;-63
2021/08/08 11:59:34;;;;;;;1.37;1.17;;;20.40;55.30;;;;;;4964681;28;20631;-56
2021/08/08 12:02:00;;;;;;;3.93;1.20;;;20.30;52.40;;;;;;4950831;28;20189;-63
2021/08/08 12:04:27;;;;;;;6.60;1.53;;;20.20;54.30;;;;;;4958695;28;20445;-61
2021/08/08 12:06:54;;;;;;;4.83;1.47;;;20.20;55.40;;;;;;4961099;28;20437;-60
2021/08/08 12:09:21;;;;;;;2.83;1.47;;;20.30;54.90;;;;;;4964318;28;20480;-62
2021/08/08 12:11:53;;;;;;;2.17;1.37;;;20.30;54.70;;;;;;4963763;28;20452;-67
2021/08/08 12:14:36;;;;;;;2.47;1.20;;;20.20;53.60;;;;;;4959290;28;20588;-60
2021/08/08 12:17:07;;;;;;;1.63;1.10;;;20.10;54.00;;;;;;4953651;28;20463;-60
2021/08/08 12:19:35;;;;;;;4.60;1.23;;;20.10;54.20;;;;;;4958233;28;20496;-58
2021/08/08 12:22:12;;;;;;;4.50;1.00;;;20.00;55.50;;;;;;4961893;28;20488;-56
2021/08/08 12:24:42;;;;;;;2.87;1.23;;;19.90;53.70;;;;;;4957335;28;20440;-56
2021/08/08 12:27:10;;;;;;;3.20;1.50;;;19.80;54.20;;;;;;4957913;28;20467;-59
2021/08/08 12:29:38;;;;;;;8.63;1.53;;;19.80;55.50;;;;;;4956522;28;20467;-58
2021/08/08 12:32:12;;;;;;;2.70;1.00;;;19.80;56.50;;;;;;4962602;28;20429;-59
2021/08/08 12:34:38;;;;;;;3.27;1.30;;;19.70;54.70;;;;;;4962595;28;20472;-59
2021/08/08 12:37:09;;;;;;;4.40;1.10;;;19.70;53.50;;;;;;4960649;28;20723;-62
2021/08/08 12:39:36;;;;;;;5.77;1.40;;;19.70;53.70;;;;;;4963835;28;21111;-59
2021/08/08 12:42:03;;;;;;;2.03;1.47;;;19.70;52.80;;;;;;4964880;28;20429;-58
2021/08/08 12:44:36;;;;;;;1.33;1.20;;;19.70;53.40;;;;;;4961656;28;20463;-60
2021/08/08 12:47:05;;;;;;;3.87;1.33;;;19.80;53.10;;;;;;4957937;28;20983;-57
2021/08/08 12:49:41;;;;;;;2.20;1.10;;;19.80;51.70;;;;;;4960924;28;20464;-60
2021/08/08 12:52:07;;;;;;;1.70;1.30;;;19.70;53.20;;;;;;4962544;28;20900;-59
2021/08/08 12:54:36;;;;;;;5.03;1.20;;;19.80;54.60;;;;;;4962879;28;20471;-61
2021/08/08 12:57:01;;;;;;;2.30;1.23;;;19.90;52.90;;;;;;4960784;28;20216;-61